Time;durP1;ratioP1;P1;durP2;ratioP2;P2;SDS_P1;SDS_P2;PMS_P1;PMS_P2;Temp;Humidity;BMP_temperature;BMP_pressure;BME280_temperature;BME280_humidity;BME280_pressure;Samples;Min_cycle;Max_cycle;Signal;HPM_P1;HPM_P2
2021/07/19 00:02:02;;;;;;;6.32;3.30;;;20.60;97.10;;;;;;5129567;28;20118;-89
2021/07/19 00:04:32;;;;;;;6.63;3.80;;;20.60;96.90;;;;;;5134611;22;20027;-85
2021/07/19 00:07:00;;;;;;;7.88;4.10;;;20.60;96.90;;;;;;5086202;28;20113;-85
2021/07/19 00:09:25;;;;;;;8.33;3.83;;;20.50;97.10;;;;;;5085276;28;20020;-86
2021/07/19 00:11:51;;;;;;;7.32;3.60;;;20.50;97.30;;;;;;5087103;28;20392;-84
2021/07/19 00:14:17;;;;;;;8.02;3.65;;;20.50;97.20;;;;;;5085771;28;20028;-85
2021/07/19 00:16:42;;;;;;;9.48;3.35;;;20.50;97.00;;;;;;5075296;28;20024;-86
2021/07/19 00:19:08;;;;;;;8.98;3.38;;;20.50;97.00;;;;;;5071611;28;20111;-86
2021/07/19 00:21:34;;;;;;;9.05;2.97;;;20.40;97.00;;;;;;5073511;28;20028;-85
2021/07/19 00:23:59;;;;;;;7.38;3.38;;;20.40;96.90;;;;;;5071862;28;20036;-86
2021/07/19 00:26:25;;;;;;;9.10;3.80;;;20.40;97.20;;;;;;5071574;28;20025;-86
2021/07/19 00:28:51;;;;;;;9.52;3.85;;;20.40;96.80;;;;;;5073070;28;20583;-86
2021/07/19 00:31:18;;;;;;;5.93;3.15;;;20.30;96.90;;;;;;5072936;28;20047;-86
2021/07/19 00:33:44;;;;;;;9.73;3.60;;;20.40;96.90;;;;;;5071747;28;20020;-86
2021/07/19 00:36:09;;;;;;;6.55;3.17;;;20.30;97.00;;;;;;5072733;28;20021;-86
2021/07/19 00:38:35;;;;;;;7.97;3.45;;;20.30;97.00;;;;;;5071721;28;20077;-86
2021/07/19 00:41:01;;;;;;;7.90;3.00;;;20.30;96.80;;;;;;5069522;28;20063;-86
2021/07/19 00:43:26;;;;;;;5.45;3.20;;;20.20;97.00;;;;;;5069653;28;20119;-86
2021/07/19 00:45:52;;;;;;;5.25;3.28;;;20.20;96.80;;;;;;5069188;28;20032;-85
2021/07/19 00:48:19;;;;;;;5.25;3.00;;;20.20;96.70;;;;;;5069608;28;20541;-86
2021/07/19 00:50:45;;;;;;;5.85;2.88;;;20.10;96.70;;;;;;5069113;28;20031;-85
2021/07/19 00:53:11;;;;;;;5.00;2.67;;;20.10;96.90;;;;;;5069623;28;20021;-85
2021/07/19 00:55:45;;;;;;;4.75;2.92;;;20.20;96.90;;;;;;5070250;28;20031;-85
2021/07/19 00:58:13;;;;;;;5.70;2.97;;;20.10;96.80;;;;;;5071493;28;20055;-86
2021/07/19 01:00:42;;;;;;;4.43;2.80;;;20.10;96.80;;;;;;5070993;28;20035;-86
2021/07/19 01:03:10;;;;;;;8.55;2.90;;;20.10;96.90;;;;;;5071380;28;20048;-86
2021/07/19 01:05:38;;;;;;;5.85;2.83;;;20.10;96.80;;;;;;5072047;28;20362;-85
2021/07/19 01:08:04;;;;;;;5.32;2.88;;;20.00;96.90;;;;;;5072631;28;20047;-86
2021/07/19 01:10:31;;;;;;;5.30;3.08;;;20.00;96.90;;;;;;5070588;28;20024;-86
2021/07/19 01:12:57;;;;;;;5.63;2.90;;;20.00;96.90;;;;;;5071269;28;20420;-85
2021/07/19 01:15:30;;;;;;;6.45;3.20;;;20.00;96.90;;;;;;5070401;28;20051;-86
2021/07/19 01:17:56;;;;;;;6.40;2.83;;;20.00;96.80;;;;;;5071080;28;20480;-86
2021/07/19 01:20:30;;;;;;;7.18;3.10;;;19.90;96.90;;;;;;5070838;28;20137;-85
2021/07/19 01:23:25;;;;;;;6.00;3.10;;;19.90;96.90;;;;;;5070268;28;20027;-85
2021/07/19 01:26:06;;;;;;;8.52;3.05;;;19.90;97.00;;;;;;5068679;28;20017;-85
2021/07/19 01:28:41;;;;;;;5.15;3.10;;;19.80;97.20;;;;;;5069309;28;20087;-86
2021/07/19 01:31:30;;;;;;;6.30;3.08;;;19.80;97.30;;;;;;5068243;28;20103;-86
2021/07/19 01:34:07;;;;;;;7.35;3.00;;;19.70;97.50;;;;;;5068678;28;20036;-85
2021/07/19 01:36:40;;;;;;;9.05;3.17;;;19.70;97.70;;;;;;5069529;28;20412;-85
2021/07/19 01:39:07;;;;;;;5.78;3.17;;;19.70;97.70;;;;;;5069961;28;20029;-86
2021/07/19 01:41:34;;;;;;;9.70;3.65;;;19.60;97.80;;;;;;5070810;28;20123;-85
2021/07/19 01:44:01;;;;;;;6.03;3.10;;;19.60;98.00;;;;;;5072181;28;20375;-86
2021/07/19 01:46:28;;;;;;;7.57;3.47;;;19.60;98.10;;;;;;5070546;28;20048;-86
2021/07/19 01:48:56;;;;;;;8.00;3.42;;;19.60;98.40;;;;;;5069877;28;20111;-85
2021/07/19 01:51:24;;;;;;;6.57;3.50;;;19.60;98.20;;;;;;5072138;28;20405;-86
2021/07/19 01:53:50;;;;;;;7.60;3.25;;;19.60;98.20;;;;;;5069487;28;20036;-86
2021/07/19 01:56:16;;;;;;;7.40;3.30;;;19.60;98.30;;;;;;5070377;28;20024;-85
2021/07/19 01:58:43;;;;;;;6.15;3.53;;;19.60;98.40;;;;;;5071496;28;20028;-85
2021/07/19 02:01:09;;;;;;;5.47;3.22;;;19.50;98.40;;;;;;5069472;28;20506;-85
2021/07/19 02:03:36;;;;;;;7.45;3.92;;;19.50;98.40;;;;;;5070234;28;20470;-85
2021/07/19 02:06:04;;;;;;;6.00;3.50;;;19.60;98.50;;;;;;5071015;28;20033;-85
2021/07/19 02:08:31;;;;;;;;;;;19.50;98.50;;;;;;5070460;28;20024;-86
2021/07/19 02:10:57;;;;;;;9.40;4.22;;;19.50;98.50;;;;;;5069579;28;19912;-86
2021/07/19 02:13:25;;;;;;;9.18;3.75;;;19.50;98.40;;;;;;5070728;28;20476;-85
2021/07/19 02:15:55;;;;;;;6.97;4.18;;;19.50;98.40;;;;;;5069540;28;20086;-86
2021/07/19 02:18:23;;;;;;;6.20;3.80;;;19.50;98.10;;;;;;5069726;28;20025;-85
2021/07/19 02:20:50;;;;;;;7.18;4.07;;;19.40;98.30;;;;;;5069337;28;20116;-85
2021/07/19 02:23:19;;;;;;;8.27;4.00;;;19.40;98.30;;;;;;5069697;28;20119;-86
2021/07/19 02:25:46;;;;;;;6.47;3.67;;;19.40;98.30;;;;;;5069451;28;20028;-85
2021/07/19 02:28:12;;;;;;;6.65;4.22;;;19.40;98.40;;;;;;5069704;28;20027;-86
2021/07/19 02:30:41;;;;;;;7.20;3.80;;;19.40;98.30;;;;;;5068761;28;20067;-85
2021/07/19 02:33:09;;;;;;;7.78;4.70;;;19.40;98.20;;;;;;5069449;28;20542;-86
2021/07/19 02:35:36;;;;;;;6.32;4.13;;;19.30;98.20;;;;;;5069240;28;20059;-86
2021/07/19 02:38:05;;;;;;;8.07;4.20;;;19.20;98.20;;;;;;5070619;28;20078;-85
2021/07/19 02:40:32;;;;;;;;;;;19.20;98.50;;;;;;5070077;28;20028;-85
2021/07/19 02:43:01;;;;;;;7.57;4.22;;;19.20;98.40;;;;;;5070588;28;19905;-85
2021/07/19 02:45:29;;;;;;;6.30;3.97;;;19.20;98.40;;;;;;5070528;28;20147;-85
2021/07/19 02:47:56;;;;;;;9.10;4.75;;;19.10;98.40;;;;;;5069411;28;20426;-85
2021/07/19 02:50:27;;;;;;;7.95;4.45;;;19.20;98.40;;;;;;5068923;28;20495;-86
2021/07/19 02:52:57;;;;;;;7.93;4.40;;;19.10;98.20;;;;;;5069165;28;20036;-86
2021/07/19 02:55:24;;;;;;;9.32;4.30;;;19.10;98.30;;;;;;5069476;28;20052;-85
2021/07/19 02:57:50;;;;;;;7.90;4.75;;;19.10;98.30;;;;;;5069423;28;20025;-86
2021/07/19 03:00:17;;;;;;;9.40;4.82;;;19.10;98.10;;;;;;5068453;28;20036;-86
2021/07/19 03:02:47;;;;;;;8.45;5.03;;;19.20;98.10;;;;;;5068248;28;20046;-87
2021/07/19 03:05:17;;;;;;;7.28;4.60;;;19.10;98.10;;;;;;5069555;28;20033;-87
2021/07/19 03:07:46;;;;;;;10.45;4.65;;;19.10;98.20;;;;;;5064014;28;20053;-86
2021/07/19 03:10:12;;;;;;;9.18;5.03;;;19.10;98.30;;;;;;5048857;28;20035;-86
2021/07/19 03:12:40;;;;;;;10.98;5.05;;;19.10;98.30;;;;;;5050347;28;20021;-85
2021/07/19 03:15:08;;;;;;;11.32;5.55;;;19.00;98.70;;;;;;5049194;28;20170;-86
2021/07/19 03:17:38;;;;;;;7.50;4.47;;;19.00;98.40;;;;;;5049281;28;20029;-85
2021/07/19 03:20:08;;;;;;;8.93;5.22;;;19.00;98.50;;;;;;5048681;28;20025;-85
2021/07/19 03:22:37;;;;;;;13.63;5.57;;;18.90;98.50;;;;;;5048716;28;20029;-85
2021/07/19 03:25:05;;;;;;;10.02;4.63;;;18.90;98.50;;;;;;5049135;28;20029;-85
2021/07/19 03:27:32;;;;;;;9.85;5.38;;;18.90;98.60;;;;;;5050535;28;20029;-85
2021/07/19 03:29:59;;;;;;;9.00;5.60;;;18.80;98.70;;;;;;5050253;28;20029;-84
2021/07/19 03:32:24;;;;;;;9.15;5.53;;;18.80;98.70;;;;;;5052642;28;20025;-84
2021/07/19 03:34:52;;;;;;;12.05;5.45;;;18.80;98.80;;;;;;5051227;28;20032;-84
2021/07/19 03:37:19;;;;;;;12.77;5.80;;;18.80;98.80;;;;;;5051005;28;20036;-84
2021/07/19 03:39:45;;;;;;;10.60;5.50;;;18.80;98.80;;;;;;5051968;28;20052;-83
2021/07/19 03:42:13;;;;;;;10.80;5.65;;;18.80;98.80;;;;;;5050657;28;20120;-85
2021/07/19 03:44:40;;;;;;;10.27;6.05;;;18.80;98.90;;;;;;5051792;28;20072;-84
2021/07/19 03:47:09;;;;;;;8.82;5.55;;;18.70;98.90;;;;;;5052538;28;20025;-84
2021/07/19 03:49:35;;;;;;;;;;;18.70;98.90;;;;;;5051424;28;20545;-84
2021/07/19 03:52:01;;;;;;;9.95;5.65;;;18.70;98.80;;;;;;5054570;28;19931;-83
2021/07/19 03:54:26;;;;;;;10.43;6.22;;;18.70;98.90;;;;;;5054019;28;20063;-84
2021/07/19 03:56:52;;;;;;;9.77;5.85;;;18.80;98.70;;;;;;5056656;28;20150;-84
2021/07/19 03:59:24;;;;;;;11.30;5.97;;;18.70;98.80;;;;;;5054476;28;20029;-84
2021/07/19 04:01:51;;;;;;;11.18;6.35;;;18.70;98.90;;;;;;5055955;28;20025;-84
2021/07/19 04:04:29;;;;;;;11.15;6.50;;;18.70;98.90;;;;;;5056548;28;20144;-84
2021/07/19 04:06:56;;;;;;;9.87;6.07;;;18.60;98.90;;;;;;5056138;28;20017;-83
2021/07/19 04:09:23;;;;;;;8.93;6.03;;;18.70;99.00;;;;;;5055211;28;20263;-84
2021/07/19 04:11:50;;;;;;;10.73;5.75;;;18.70;99.00;;;;;;5054130;28;20025;-84
2021/07/19 04:14:17;;;;;;;9.80;5.88;;;18.70;99.00;;;;;;5062095;28;20514;-84
2021/07/19 04:16:43;;;;;;;10.00;5.82;;;18.60;99.00;;;;;;5055543;28;20029;-84
2021/07/19 04:19:12;;;;;;;10.52;6.53;;;18.60;99.00;;;;;;5054982;28;20108;-84
2021/07/19 04:21:39;;;;;;;10.75;5.97;;;18.60;99.00;;;;;;5053025;28;20044;-86
2021/07/19 04:24:05;;;;;;;11.20;6.90;;;18.60;99.10;;;;;;5053952;28;20052;-85
2021/07/19 04:26:32;;;;;;;10.25;6.72;;;18.60;99.10;;;;;;5052923;28;20034;-85
2021/07/19 04:29:01;;;;;;;11.48;6.70;;;18.70;99.10;;;;;;5052571;28;20119;-85
2021/07/19 04:31:27;;;;;;;16.75;7.75;;;18.60;99.10;;;;;;5052356;28;20031;-84
2021/07/19 04:33:53;;;;;;;14.85;7.47;;;18.70;99.20;;;;;;5052387;28;20124;-85
2021/07/19 04:36:18;;;;;;;13.43;7.07;;;18.70;99.10;;;;;;5052367;28;20109;-84
2021/07/19 04:38:46;;;;;;;18.80;8.70;;;18.70;99.00;;;;;;5053399;28;20017;-86
2021/07/19 04:41:15;;;;;;;15.60;7.70;;;18.70;98.90;;;;;;5052867;28;20349;-86
2021/07/19 04:43:41;;;;;;;17.60;7.88;;;18.70;98.90;;;;;;5051537;28;20032;-86
2021/07/19 04:46:07;;;;;;;17.77;7.93;;;18.70;99.00;;;;;;5053325;28;20033;-85
2021/07/19 04:48:33;;;;;;;15.55;7.75;;;18.70;99.10;;;;;;5053110;28;20106;-86
2021/07/19 04:50:59;;;;;;;17.17;8.18;;;18.70;99.10;;;;;;5051314;28;20016;-86
2021/07/19 04:53:24;;;;;;;14.23;7.90;;;18.70;98.90;;;;;;5052070;28;20362;-86
2021/07/19 04:55:53;;;;;;;15.75;8.23;;;18.70;99.00;;;;;;5051910;28;20028;-87
2021/07/19 04:58:23;;;;;;;13.23;7.60;;;18.60;99.00;;;;;;5051641;28;20029;-87
2021/07/19 05:00:53;;;;;;;12.75;7.15;;;18.70;99.00;;;;;;5052618;28;20059;-86
2021/07/19 05:03:21;;;;;;;16.67;7.38;;;18.70;99.00;;;;;;5047923;28;20025;-88
2021/07/19 05:05:51;;;;;;;12.02;7.35;;;18.70;99.00;;;;;;5047423;28;20206;-87
2021/07/19 05:08:21;;;;;;;15.85;7.65;;;18.80;98.80;;;;;;5047681;28;20036;-88
2021/07/19 05:10:50;;;;;;;12.55;7.38;;;18.80;98.90;;;;;;5047782;28;20021;-88
2021/07/19 05:13:18;;;;;;;12.93;7.55;;;18.80;98.80;;;;;;5048720;28;20021;-88
2021/07/19 05:15:45;;;;;;;12.63;7.20;;;18.80;98.90;;;;;;5050851;28;20036;-87
2021/07/19 05:18:11;;;;;;;14.35;7.60;;;18.80;98.80;;;;;;5052567;28;20389;-88
2021/07/19 05:20:39;;;;;;;15.45;8.93;;;18.80;98.70;;;;;;5052603;28;20039;-88
2021/07/19 05:23:05;;;;;;;12.15;7.78;;;18.80;98.60;;;;;;5051243;28;20072;-88
2021/07/19 05:25:32;;;;;;;10.27;7.65;;;18.80;98.90;;;;;;5050947;28;20496;-87
2021/07/19 05:27:58;;;;;;;13.18;7.78;;;18.90;98.80;;;;;;5051227;28;20018;-87
2021/07/19 05:30:26;;;;;;;15.02;8.13;;;18.80;98.80;;;;;;5051403;28;20020;-87
2021/07/19 05:32:52;;;;;;;15.70;8.40;;;18.90;98.80;;;;;;5051261;28;20025;-87
2021/07/19 05:35:19;;;;;;;14.50;8.32;;;18.90;98.80;;;;;;5050850;28;20036;-87
2021/07/19 05:37:46;;;;;;;15.52;8.50;;;18.90;98.80;;;;;;5050665;28;20036;-86
2021/07/19 05:40:12;;;;;;;12.20;7.70;;;19.00;98.60;;;;;;5059006;28;20110;-88
2021/07/19 05:42:39;;;;;;;14.60;8.98;;;19.00;98.50;;;;;;5070962;28;20052;-89
2021/07/19 05:45:06;;;;;;;15.55;8.32;;;19.00;98.50;;;;;;5070961;28;20020;-88
2021/07/19 05:47:33;;;;;;;14.82;8.20;;;19.00;98.60;;;;;;5072311;28;20024;-88
2021/07/19 05:49:59;;;;;;;16.08;8.35;;;19.00;98.60;;;;;;5073060;28;20025;-89
2021/07/19 05:52:25;;;;;;;16.63;8.40;;;19.10;98.40;;;;;;5074092;28;20020;-88
2021/07/19 05:54:50;;;;;;;12.13;8.30;;;19.00;98.70;;;;;;5075916;28;20027;-89
2021/07/19 05:57:16;;;;;;;14.32;8.70;;;19.10;98.80;;;;;;5072654;28;20036;-87
2021/07/19 05:59:42;;;;;;;16.50;8.52;;;19.10;98.30;;;;;;5071053;28;20082;-87
2021/07/19 06:02:10;;;;;;;15.00;8.60;;;19.10;98.30;;;;;;5070589;28;20048;-86
2021/07/19 06:04:35;;;;;;;15.48;8.50;;;19.10;98.20;;;;;;5071778;28;20111;-88
2021/07/19 06:07:01;;;;;;;13.63;8.02;;;19.10;98.20;;;;;;5070621;28;20552;-86
2021/07/19 06:09:27;;;;;;;13.73;8.40;;;19.20;98.30;;;;;;5071186;28;20021;-90
2021/07/19 06:11:53;;;;;;;13.25;7.70;;;19.20;98.10;;;;;;5071537;28;20025;-90
2021/07/19 06:14:18;;;;;;;13.88;8.05;;;19.30;98.10;;;;;;5072537;28;20028;-88
2021/07/19 06:16:44;;;;;;;15.10;8.45;;;19.30;98.00;;;;;;5070205;28;20031;-86
2021/07/19 06:19:09;;;;;;;16.75;8.65;;;19.40;97.90;;;;;;5069266;28;20029;-87
2021/07/19 06:24:11;;;;;;;15.45;8.77;;;19.50;97.60;;;;;;5049652;28;20049;-85
2021/07/19 06:26:38;;;;;;;11.80;7.60;;;19.50;98.10;;;;;;5033577;28;20025;-84
2021/07/19 06:29:05;;;;;;;14.85;8.15;;;19.50;98.30;;;;;;5033242;28;20025;-84
2021/07/19 06:31:31;;;;;;;18.10;8.95;;;19.50;97.90;;;;;;5052328;28;20023;-86
2021/07/19 06:33:57;;;;;;;15.05;8.63;;;19.60;97.70;;;;;;5050003;28;20024;-85
2021/07/19 06:36:23;;;;;;;14.02;8.82;;;19.60;98.30;;;;;;5051381;28;20021;-83
2021/07/19 06:38:49;;;;;;;13.68;9.05;;;19.80;98.70;;;;;;5050071;28;20036;-84
2021/07/19 06:41:14;;;;;;;15.93;8.35;;;19.90;98.70;;;;;;5049998;28;20432;-83
2021/07/19 06:43:40;;;;;;;16.52;8.68;;;20.00;97.70;;;;;;5049616;28;20017;-83
2021/07/19 06:46:06;;;;;;;18.52;8.68;;;20.00;97.50;;;;;;5049383;28;20086;-85
2021/07/19 06:48:33;;;;;;;13.15;8.65;;;20.10;97.70;;;;;;5049937;28;20032;-87
2021/07/19 06:51:00;;;;;;;13.27;8.07;;;20.20;97.20;;;;;;5049177;28;20017;-84
2021/07/19 06:53:26;;;;;;;13.13;8.02;;;20.20;96.90;;;;;;5049242;28;20021;-85
2021/07/19 06:55:52;;;;;;;14.05;7.00;;;20.20;96.90;;;;;;5049277;28;20031;-83
2021/07/19 06:58:17;;;;;;;13.43;8.00;;;20.20;96.80;;;;;;5049483;28;20021;-84
2021/07/19 07:00:43;;;;;;;15.10;8.35;;;20.10;96.00;;;;;;5049303;28;20089;-83
2021/07/19 07:03:08;;;;;;;14.23;8.50;;;20.10;96.30;;;;;;5049395;28;20021;-86
2021/07/19 07:05:34;;;;;;;14.68;8.85;;;20.10;96.80;;;;;;5049246;28;20116;-86
2021/07/19 07:08:00;;;;;;;11.32;7.60;;;20.00;96.50;;;;;;5049121;28;20017;-85
2021/07/19 07:10:26;;;;;;;13.85;8.82;;;20.00;96.70;;;;;;5048591;28;20025;-84
2021/07/19 07:12:51;;;;;;;14.32;7.93;;;20.00;96.80;;;;;;5049246;28;20480;-84
2021/07/19 07:15:17;;;;;;;13.07;7.75;;;20.00;97.10;;;;;;5049382;28;20029;-84
2021/07/19 07:17:43;;;;;;;13.18;7.55;;;20.00;97.00;;;;;;5049316;28;20918;-84
2021/07/19 07:20:11;;;;;;;14.80;7.13;;;20.00;97.00;;;;;;5048798;28;20044;-85
2021/07/19 07:22:37;;;;;;;12.90;7.57;;;20.00;96.90;;;;;;5048966;28;20052;-85
2021/07/19 07:25:04;;;;;;;12.70;7.35;;;20.00;96.10;;;;;;5049042;28;20464;-85
2021/07/19 07:27:30;;;;;;;13.13;6.97;;;20.00;96.30;;;;;;5052640;28;20090;-85
2021/07/19 07:29:56;;;;;;;12.00;7.20;;;20.00;96.60;;;;;;5052907;28;20032;-84
2021/07/19 07:32:21;;;;;;;13.32;7.15;;;20.00;96.50;;;;;;5054465;28;20017;-84
2021/07/19 07:34:47;;;;;;;11.73;7.55;;;20.10;96.50;;;;;;5053233;28;20567;-84
2021/07/19 07:37:13;;;;;;;12.63;7.15;;;20.10;96.50;;;;;;5054542;28;20029;-85
2021/07/19 07:39:42;;;;;;;16.80;9.63;;;20.10;95.90;;;;;;5053423;28;20032;-84
2021/07/19 07:42:10;;;;;;;12.25;7.72;;;20.10;96.00;;;;;;5052926;28;20036;-84
2021/07/19 07:44:36;;;;;;;14.50;8.02;;;20.10;96.20;;;;;;5052764;28;20032;-85
2021/07/19 07:47:02;;;;;;;12.95;7.35;;;20.10;96.40;;;;;;5054233;28;20025;-85
2021/07/19 07:49:28;;;;;;;12.93;8.00;;;20.10;96.20;;;;;;5052209;28;20536;-85
2021/07/19 07:51:56;;;;;;;17.38;9.13;;;20.20;96.40;;;;;;5054286;28;20017;-84
2021/07/19 07:54:22;;;;;;;14.77;9.55;;;20.10;96.30;;;;;;5053698;28;20048;-83
2021/07/19 07:56:47;;;;;;;14.40;9.23;;;20.10;96.30;;;;;;5054324;28;20071;-83
2021/07/19 07:59:14;;;;;;;18.73;10.18;;;20.10;96.20;;;;;;5053102;28;20041;-83
2021/07/19 08:01:39;;;;;;;16.95;9.60;;;20.10;95.90;;;;;;5053410;28;20029;-82
2021/07/19 08:04:05;;;;;;;13.07;8.38;;;20.10;95.80;;;;;;5053268;28;20029;-83
2021/07/19 08:06:31;;;;;;;16.95;9.68;;;20.10;95.80;;;;;;5050498;28;20021;-87
2021/07/19 08:08:56;;;;;;;15.65;9.68;;;20.10;95.90;;;;;;5050538;28;20018;-83
2021/07/19 08:11:22;;;;;;;17.38;9.70;;;20.20;96.00;;;;;;5051025;28;20025;-85
2021/07/19 08:13:48;;;;;;;16.15;10.10;;;20.20;95.60;;;;;;5051021;28;20400;-83
2021/07/19 08:16:13;;;;;;;13.82;8.93;;;20.20;95.80;;;;;;5051969;28;20025;-86
2021/07/19 08:18:39;;;;;;;12.80;8.88;;;20.30;95.60;;;;;;5050146;28;20036;-84
2021/07/19 08:21:05;;;;;;;15.52;9.35;;;20.30;95.60;;;;;;5051237;28;20270;-84
2021/07/19 08:23:30;;;;;;;14.93;9.38;;;20.40;95.20;;;;;;5051982;28;20033;-84
2021/07/19 08:25:56;;;;;;;13.88;8.43;;;20.50;95.30;;;;;;5051998;28;20017;-85
2021/07/19 08:28:21;;;;;;;13.68;8.10;;;20.50;95.20;;;;;;5051387;28;20365;-84
2021/07/19 08:30:47;;;;;;;14.30;8.82;;;20.60;94.70;;;;;;5050419;28;20036;-85
2021/07/19 08:33:13;;;;;;;15.13;9.48;;;20.50;93.80;;;;;;5051354;28;20104;-84
2021/07/19 08:35:39;;;;;;;12.63;8.43;;;20.50;93.70;;;;;;5051557;28;20029;-84
2021/07/19 08:38:06;;;;;;;14.25;8.73;;;20.50;93.50;;;;;;5052288;28;20017;-84
2021/07/19 08:40:32;;;;;;;13.60;8.30;;;20.50;93.30;;;;;;5051113;28;20033;-84
2021/07/19 08:42:59;;;;;;;14.82;8.40;;;20.40;92.90;;;;;;5051263;28;20025;-84
2021/07/19 08:45:24;;;;;;;14.98;8.65;;;20.40;93.10;;;;;;5051320;28;20076;-84
2021/07/19 08:47:52;;;;;;;14.05;7.22;;;20.40;93.60;;;;;;5051361;28;20029;-84
2021/07/19 08:50:20;;;;;;;13.63;7.78;;;20.30;92.50;;;;;;5050826;28;20078;-83
2021/07/19 08:52:48;;;;;;;13.18;8.15;;;20.20;92.70;;;;;;5051270;28;20043;-85
2021/07/19 08:55:15;;;;;;;14.07;8.23;;;20.20;92.60;;;;;;5051243;28;20029;-84
2021/07/19 08:57:44;;;;;;;12.23;8.32;;;20.20;92.80;;;;;;5052388;28;20470;-84
2021/07/19 09:00:10;;;;;;;11.88;8.20;;;20.20;92.90;;;;;;5052114;28;20025;-84
2021/07/19 09:02:37;;;;;;;12.90;8.57;;;20.20;92.60;;;;;;5051126;28;20350;-84
2021/07/19 09:05:04;;;;;;;12.25;8.05;;;20.20;92.20;;;;;;5051088;28;20025;-83
2021/07/19 09:07:31;;;;;;;11.80;7.90;;;20.10;91.70;;;;;;5051947;28;20370;-84
2021/07/19 09:09:59;;;;;;;12.57;7.88;;;20.10;91.90;;;;;;5051915;28;20017;-83
2021/07/19 09:12:41;;;;;;;12.65;7.55;;;20.10;92.10;;;;;;5052225;28;20078;-82
2021/07/19 09:15:09;;;;;;;13.50;7.43;;;20.10;92.80;;;;;;5053149;28;20063;-83
2021/07/19 09:17:35;;;;;;;12.52;7.68;;;20.10;93.20;;;;;;5052520;28;20101;-83
2021/07/19 09:20:01;;;;;;;12.15;7.50;;;20.10;93.60;;;;;;5054576;28;20033;-83
2021/07/19 09:22:32;;;;;;;12.02;7.82;;;20.10;93.70;;;;;;5053200;28;20032;-83
2021/07/19 09:25:15;;;;;;;10.98;7.72;;;20.10;93.80;;;;;;5055013;28;20045;-83
2021/07/19 09:27:57;;;;;;;14.55;8.35;;;20.20;93.80;;;;;;5053716;28;20017;-85
2021/07/19 09:30:27;;;;;;;14.30;8.70;;;20.20;93.30;;;;;;5052305;28;20017;-85
2021/07/19 09:32:58;;;;;;;12.07;8.02;;;20.30;93.50;;;;;;5050415;28;20104;-86
2021/07/19 09:35:24;;;;;;;16.15;8.55;;;20.40;93.60;;;;;;5050864;28;20032;-85
2021/07/19 09:37:52;;;;;;;11.95;8.30;;;20.40;93.00;;;;;;5050638;28;20033;-85
2021/07/19 09:40:29;;;;;;;10.95;7.68;;;20.50;93.20;;;;;;5050136;28;20036;-85
2021/07/19 09:42:55;;;;;;;13.05;8.13;;;20.60;93.30;;;;;;5050007;28;20025;-86
2021/07/19 09:45:31;;;;;;;13.18;8.52;;;20.60;93.10;;;;;;5050597;28;20448;-85
2021/07/19 09:48:02;;;;;;;13.82;8.32;;;20.60;93.00;;;;;;5052265;28;20067;-85
2021/07/19 09:50:44;;;;;;;14.23;8.35;;;20.60;92.70;;;;;;5049996;28;20055;-84
2021/07/19 09:53:11;;;;;;;13.93;8.80;;;20.70;92.40;;;;;;5050212;28;20035;-84
2021/07/19 09:55:38;;;;;;;12.50;8.48;;;20.60;92.00;;;;;;5050656;28;20025;-84
2021/07/19 09:58:04;;;;;;;12.98;8.38;;;20.60;92.00;;;;;;5052371;28;20021;-85
2021/07/19 10:00:31;;;;;;;12.80;8.40;;;20.60;92.20;;;;;;5051402;28;20108;-84
2021/07/19 10:02:57;;;;;;;13.18;8.02;;;20.60;92.20;;;;;;5050746;28;20031;-83
2021/07/19 10:05:29;;;;;;;14.20;9.13;;;20.60;92.30;;;;;;5049669;28;20840;-83
2021/07/19 10:07:59;;;;;;;14.15;8.63;;;20.60;92.50;;;;;;5048008;28;20218;-83
2021/07/19 10:10:36;;;;;;;12.35;7.97;;;20.70;92.60;;;;;;5048754;28;20024;-85
2021/07/19 10:13:05;;;;;;;13.15;8.45;;;20.70;92.10;;;;;;5046853;28;20017;-84
2021/07/19 10:15:31;;;;;;;14.57;8.80;;;20.70;92.00;;;;;;5050148;28;20032;-85
2021/07/19 10:17:59;;;;;;;14.98;8.43;;;20.80;92.90;;;;;;5050460;28;20452;-86
2021/07/19 10:20:25;;;;;;;17.20;9.15;;;20.90;92.50;;;;;;5050057;28;20049;-87
2021/07/19 10:22:51;;;;;;;13.75;8.82;;;20.90;92.20;;;;;;5050122;28;20043;-87
2021/07/19 10:25:17;;;;;;;15.43;8.55;;;20.90;92.20;;;;;;5049867;28;20064;-86
2021/07/19 10:27:44;;;;;;;15.00;9.10;;;20.90;91.80;;;;;;5049974;28;20025;-86
2021/07/19 10:30:10;;;;;;;12.38;9.00;;;20.90;91.70;;;;;;5049116;28;20029;-86
2021/07/19 10:32:37;;;;;;;12.57;9.20;;;20.90;91.90;;;;;;5049001;28;20100;-86
2021/07/19 10:35:05;;;;;;;14.35;8.77;;;20.90;91.90;;;;;;5049781;28;20071;-86
2021/07/19 10:37:37;;;;;;;15.52;9.00;;;21.00;91.80;;;;;;5049574;28;20032;-86
2021/07/19 10:40:09;;;;;;;15.55;8.95;;;21.00;91.70;;;;;;5049031;28;20477;-86
2021/07/19 10:42:38;;;;;;;14.02;9.30;;;21.10;91.90;;;;;;5050372;28;20051;-85
2021/07/19 10:45:15;;;;;;;15.82;9.75;;;21.10;91.90;;;;;;5050768;28;20124;-85
2021/07/19 10:47:48;;;;;;;14.15;9.07;;;21.00;90.90;;;;;;5049521;28;20025;-85
2021/07/19 10:50:19;;;;;;;14.45;9.02;;;21.10;91.20;;;;;;5050428;28;20017;-85
2021/07/19 10:52:45;;;;;;;13.27;9.07;;;21.10;91.10;;;;;;5048869;28;20371;-84
2021/07/19 10:55:23;;;;;;;13.75;8.60;;;21.00;91.20;;;;;;5049141;28;20031;-85
2021/07/19 10:58:17;;;;;;;12.85;9.20;;;21.00;91.30;;;;;;5049183;28;20123;-84
2021/07/19 11:00:47;;;;;;;15.73;9.52;;;21.00;91.50;;;;;;5048432;28;20481;-85
2021/07/19 11:03:15;;;;;;;14.95;8.90;;;21.00;91.10;;;;;;5048918;28;20087;-84
2021/07/19 11:05:45;;;;;;;16.45;9.07;;;21.00;91.40;;;;;;5050489;28;20025;-85
2021/07/19 11:08:25;;;;;;;15.18;9.23;;;21.00;91.60;;;;;;5049523;28;20037;-85
2021/07/19 11:10:53;;;;;;;13.68;8.60;;;21.10;91.80;;;;;;5048879;28;20029;-85
2021/07/19 11:13:28;;;;;;;13.13;9.25;;;21.10;91.30;;;;;;5050585;28;20025;-85
2021/07/19 11:15:54;;;;;;;15.02;8.70;;;21.10;91.50;;;;;;5050685;28;20481;-82
2021/07/19 11:18:23;;;;;;;13.77;8.85;;;21.10;91.80;;;;;;5050867;28;20021;-87
2021/07/19 11:20:49;;;;;;;11.27;8.15;;;21.10;91.80;;;;;;5048727;28;20025;-86
2021/07/19 11:23:28;;;;;;;12.95;8.90;;;21.20;91.90;;;;;;5050428;28;20064;-87
2021/07/19 11:25:54;;;;;;;13.68;9.18;;;21.30;91.60;;;;;;5049234;28;20063;-88
2021/07/19 11:28:23;;;;;;;13.45;8.77;;;21.30;91.50;;;;;;5049270;28;20458;-86
2021/07/19 11:31:09;;;;;;;;;;;21.30;91.50;;;;;;5049173;28;20033;-87
2021/07/19 11:33:48;;;;;;;12.18;8.27;;;21.30;91.10;;;;;;5048241;28;19905;-87
2021/07/19 11:36:18;;;;;;;14.52;8.60;;;21.30;91.20;;;;;;5049365;28;20053;-88
2021/07/19 11:38:44;;;;;;;15.35;8.60;;;21.30;91.00;;;;;;5050437;28;20029;-88
2021/07/19 11:41:24;;;;;;;11.63;8.05;;;21.20;90.70;;;;;;5048808;28;20386;-88
2021/07/19 11:43:59;;;;;;;13.73;8.75;;;21.20;91.40;;;;;;5049050;28;20025;-86
2021/07/19 11:46:39;;;;;;;12.95;8.55;;;21.20;91.20;;;;;;5049224;28;20461;-86
2021/07/19 11:49:10;;;;;;;14.32;9.23;;;21.20;91.20;;;;;;5049311;28;20186;-85
2021/07/19 11:51:43;;;;;;;13.27;8.70;;;21.10;91.10;;;;;;5047487;28;20071;-86
2021/07/19 11:54:13;;;;;;;17.17;9.98;;;21.20;91.40;;;;;;5048589;28;20750;-84
2021/07/19 11:56:44;;;;;;;15.70;8.60;;;21.10;91.40;;;;;;5048757;28;20025;-85
2021/07/19 11:59:10;;;;;;;16.40;8.80;;;21.20;91.50;;;;;;5048218;28;20025;-85
2021/07/19 12:01:36;;;;;;;12.98;8.45;;;21.20;91.90;;;;;;5050463;28;20444;-86
2021/07/19 12:04:04;;;;;;;11.52;8.05;;;21.30;91.80;;;;;;5048351;28;20112;-84
2021/07/19 12:06:31;;;;;;;13.18;9.00;;;21.30;91.90;;;;;;5049805;28;20025;-84
2021/07/19 12:09:06;;;;;;;14.48;9.40;;;21.40;91.80;;;;;;5049056;28;20025;-84
2021/07/19 12:11:33;;;;;;;12.90;8.18;;;21.40;91.40;;;;;;5048866;28;20138;-81
2021/07/19 12:14:08;;;;;;;13.30;8.68;;;21.50;92.00;;;;;;5051952;28;20074;-83
2021/07/19 12:16:37;;;;;;;19.15;9.68;;;21.60;91.10;;;;;;5052341;28;20550;-82
2021/07/19 12:19:04;;;;;;;15.25;9.52;;;21.60;91.30;;;;;;5052547;28;20040;-82
2021/07/19 12:21:41;;;;;;;14.82;9.45;;;21.60;90.60;;;;;;5052761;28;20040;-82
2021/07/19 12:24:09;;;;;;;15.95;10.10;;;21.70;90.60;;;;;;5051544;28;20440;-82
2021/07/19 12:26:37;;;;;;;15.60;9.38;;;21.70;90.70;;;;;;5052399;28;20032;-81
2021/07/19 12:29:14;;;;;;;14.15;9.43;;;21.70;90.30;;;;;;5051374;28;20481;-80
2021/07/19 12:31:51;;;;;;;16.55;9.57;;;21.90;90.30;;;;;;5053100;28;20025;-79
2021/07/19 12:34:22;;;;;;;14.25;9.18;;;21.90;89.30;;;;;;5051772;28;20048;-79
2021/07/19 12:36:49;;;;;;;13.90;9.13;;;21.90;90.50;;;;;;5053987;28;20075;-82
2021/07/19 12:39:16;;;;;;;13.50;9.35;;;22.00;91.30;;;;;;5068073;23;20159;-86
2021/07/19 12:41:46;;;;;;;17.08;10.63;;;22.00;91.10;;;;;;5057697;28;20021;-87
2021/07/19 12:44:12;;;;;;;15.02;9.88;;;22.00;91.00;;;;;;5055865;28;20056;-89
2021/07/19 12:46:42;;;;;;;22.02;10.73;;;21.90;90.60;;;;;;5055413;28;20021;-87
2021/07/19 12:49:09;;;;;;;17.70;10.45;;;21.90;90.80;;;;;;5057182;28;20088;-88